<?xml version="1.0" encoding="UTF-8" standalone="no" ?>
<gpx xmlns="http://www.topografix.com/GPX/1/1" xmlns:xsi="http://www.w3.org/2001/XMLSchema-instance" xsi:schemaLocation="http://www.topografix.com/GPX/1/1 http://www.topografix.com/GPX/1/1/gpx.xsd" version="1.1" creator="VisuGPX - https://www.visugpx.com">
  <metadata>
    <name>montee du grand caunet</name>
    <desc><![CDATA[montee du grand caunet]]></desc>
  </metadata>
  <trk>
    <name><![CDATA[IronB la ciotat 03/10/10 - velo]]></name>
    <trkseg>
      <trkpt lat="43.20939" lon="5.6287">
        <ele>67</ele>
        <time>2010-10-03T09:48:23.000Z</time>
      </trkpt>
      <trkpt lat="43.20949" lon="5.62864">
        <ele>67.400001525879</ele>
        <time>2010-10-03T09:48:25.000Z</time>
      </trkpt>
      <trkpt lat="43.2097" lon="5.62867">
        <ele>68</ele>
        <time>2010-10-03T09:48:29.000Z</time>
      </trkpt>
      <trkpt lat="43.20981" lon="5.62873">
        <ele>68</ele>
        <time>2010-10-03T09:48:31.000Z</time>
      </trkpt>
      <trkpt lat="43.21005" lon="5.62882">
        <ele>68</ele>
        <time>2010-10-03T09:48:35.000Z</time>
      </trkpt>
      <trkpt lat="43.21043" lon="5.62887">
        <ele>67.400001525879</ele>
        <time>2010-10-03T09:48:41.000Z</time>
      </trkpt>
      <trkpt lat="43.2105" lon="5.62887">
        <ele>67.199996948242</ele>
        <time>2010-10-03T09:48:42.000Z</time>
      </trkpt>
      <trkpt lat="43.21082" lon="5.62888">
        <ele>67</ele>
        <time>2010-10-03T09:48:47.000Z</time>
      </trkpt>
      <trkpt lat="43.21102" lon="5.62889">
        <ele>68.400001525879</ele>
        <time>2010-10-03T09:48:50.000Z</time>
      </trkpt>
      <trkpt lat="43.21121" lon="5.62892">
        <ele>69.599998474121</ele>
        <time>2010-10-03T09:48:53.000Z</time>
      </trkpt>
      <trkpt lat="43.21151" lon="5.62902">
        <ele>71.400001525879</ele>
        <time>2010-10-03T09:48:58.000Z</time>
      </trkpt>
      <trkpt lat="43.21157" lon="5.62904">
        <ele>71.800003051758</ele>
        <time>2010-10-03T09:48:59.000Z</time>
      </trkpt>
      <trkpt lat="43.21195" lon="5.62922">
        <ele>73.199996948242</ele>
        <time>2010-10-03T09:49:05.000Z</time>
      </trkpt>
      <trkpt lat="43.21202" lon="5.62926">
        <ele>73.199996948242</ele>
        <time>2010-10-03T09:49:06.000Z</time>
      </trkpt>
      <trkpt lat="43.21236" lon="5.62942">
        <ele>74</ele>
        <time>2010-10-03T09:49:11.000Z</time>
      </trkpt>
      <trkpt lat="43.21268" lon="5.62958">
        <ele>74</ele>
        <time>2010-10-03T09:49:16.000Z</time>
      </trkpt>
      <trkpt lat="43.21275" lon="5.62962">
        <ele>74</ele>
        <time>2010-10-03T09:49:17.000Z</time>
      </trkpt>
      <trkpt lat="43.21307" lon="5.62982">
        <ele>73.400001525879</ele>
        <time>2010-10-03T09:49:22.000Z</time>
      </trkpt>
      <trkpt lat="43.21313" lon="5.62988">
        <ele>73.199996948242</ele>
        <time>2010-10-03T09:49:23.000Z</time>
      </trkpt>
      <trkpt lat="43.21339" lon="5.63023">
        <ele>73.800003051758</ele>
        <time>2010-10-03T09:49:28.000Z</time>
      </trkpt>
      <trkpt lat="43.21349" lon="5.63038">
        <ele>74.400001525879</ele>
        <time>2010-10-03T09:49:30.000Z</time>
      </trkpt>
      <trkpt lat="43.21368" lon="5.63065">
        <ele>75</ele>
        <time>2010-10-03T09:49:34.000Z</time>
      </trkpt>
      <trkpt lat="43.21372" lon="5.6307">
        <ele>75</ele>
        <time>2010-10-03T09:49:35.000Z</time>
      </trkpt>
      <trkpt lat="43.21388" lon="5.63092">
        <ele>75.400001525879</ele>
        <time>2010-10-03T09:49:39.000Z</time>
      </trkpt>
      <trkpt lat="43.21395" lon="5.63102">
        <ele>76.199996948242</ele>
        <time>2010-10-03T09:49:41.000Z</time>
      </trkpt>
      <trkpt lat="43.21412" lon="5.63129">
        <ele>77.800003051758</ele>
        <time>2010-10-03T09:49:46.000Z</time>
      </trkpt>
      <trkpt lat="43.21419" lon="5.6314">
        <ele>78.400001525879</ele>
        <time>2010-10-03T09:49:48.000Z</time>
      </trkpt>
      <trkpt lat="43.21422" lon="5.63145">
        <ele>78.599998474121</ele>
        <time>2010-10-03T09:49:49.000Z</time>
      </trkpt>
      <trkpt lat="43.21432" lon="5.63158">
        <ele>79.599998474121</ele>
        <time>2010-10-03T09:49:52.000Z</time>
      </trkpt>
      <trkpt lat="43.21444" lon="5.63177">
        <ele>80.599998474121</ele>
        <time>2010-10-03T09:49:56.000Z</time>
      </trkpt>
      <trkpt lat="43.21448" lon="5.63182">
        <ele>81</ele>
        <time>2010-10-03T09:49:57.000Z</time>
      </trkpt>
      <trkpt lat="43.21455" lon="5.63191">
        <ele>81.800003051758</ele>
        <time>2010-10-03T09:49:59.000Z</time>
      </trkpt>
      <trkpt lat="43.2147" lon="5.63213">
        <ele>83.800003051758</ele>
        <time>2010-10-03T09:50:04.000Z</time>
      </trkpt>
      <trkpt lat="43.21479" lon="5.63225">
        <ele>85</ele>
        <time>2010-10-03T09:50:07.000Z</time>
      </trkpt>
      <trkpt lat="43.21499" lon="5.63242">
        <ele>87</ele>
        <time>2010-10-03T09:50:13.000Z</time>
      </trkpt>
      <trkpt lat="43.21503" lon="5.63244">
        <ele>87.400001525879</ele>
        <time>2010-10-03T09:50:14.000Z</time>
      </trkpt>
      <trkpt lat="43.2153" lon="5.63264">
        <ele>89.400001525879</ele>
        <time>2010-10-03T09:50:22.000Z</time>
      </trkpt>
      <trkpt lat="43.21534" lon="5.63267">
        <ele>89.599998474121</ele>
        <time>2010-10-03T09:50:23.000Z</time>
      </trkpt>
      <trkpt lat="43.21561" lon="5.63284">
        <ele>91.599998474121</ele>
        <time>2010-10-03T09:50:30.000Z</time>
      </trkpt>
      <trkpt lat="43.21568" lon="5.63289">
        <ele>92.199996948242</ele>
        <time>2010-10-03T09:50:32.000Z</time>
      </trkpt>
      <trkpt lat="43.21585" lon="5.6331">
        <ele>94.400001525879</ele>
        <time>2010-10-03T09:50:38.000Z</time>
      </trkpt>
      <trkpt lat="43.21595" lon="5.63327">
        <ele>95.800003051758</ele>
        <time>2010-10-03T09:50:42.000Z</time>
      </trkpt>
      <trkpt lat="43.21607" lon="5.63346">
        <ele>97.599998474121</ele>
        <time>2010-10-03T09:50:47.000Z</time>
      </trkpt>
      <trkpt lat="43.21619" lon="5.63366">
        <ele>99.400001525879</ele>
        <time>2010-10-03T09:50:52.000Z</time>
      </trkpt>
      <trkpt lat="43.21628" lon="5.63381">
        <ele>100.59999847412</ele>
        <time>2010-10-03T09:50:56.000Z</time>
      </trkpt>
      <trkpt lat="43.21643" lon="5.63404">
        <ele>102.59999847412</ele>
        <time>2010-10-03T09:51:02.000Z</time>
      </trkpt>
      <trkpt lat="43.21651" lon="5.63416">
        <ele>103.40000152588</ele>
        <time>2010-10-03T09:51:05.000Z</time>
      </trkpt>
      <trkpt lat="43.21665" lon="5.63445">
        <ele>105.59999847412</ele>
        <time>2010-10-03T09:51:12.000Z</time>
      </trkpt>
      <trkpt lat="43.21677" lon="5.63465">
        <ele>106.80000305176</ele>
        <time>2010-10-03T09:51:17.000Z</time>
      </trkpt>
      <trkpt lat="43.21687" lon="5.63485">
        <ele>108.19999694824</ele>
        <time>2010-10-03T09:51:22.000Z</time>
      </trkpt>
      <trkpt lat="43.21692" lon="5.63493">
        <ele>108.59999847412</ele>
        <time>2010-10-03T09:51:24.000Z</time>
      </trkpt>
      <trkpt lat="43.21709" lon="5.63502">
        <ele>109.59999847412</ele>
        <time>2010-10-03T09:51:29.000Z</time>
      </trkpt>
      <trkpt lat="43.2172" lon="5.63503">
        <ele>109.80000305176</ele>
        <time>2010-10-03T09:51:32.000Z</time>
      </trkpt>
      <trkpt lat="43.21735" lon="5.63501">
        <ele>109.80000305176</ele>
        <time>2010-10-03T09:51:36.000Z</time>
      </trkpt>
      <trkpt lat="43.21757" lon="5.63499">
        <ele>109.59999847412</ele>
        <time>2010-10-03T09:51:42.000Z</time>
      </trkpt>
      <trkpt lat="43.21764" lon="5.63501">
        <ele>109.59999847412</ele>
        <time>2010-10-03T09:51:44.000Z</time>
      </trkpt>
      <trkpt lat="43.21783" lon="5.63516">
        <ele>111.19999694824</ele>
        <time>2010-10-03T09:51:50.000Z</time>
      </trkpt>
      <trkpt lat="43.21788" lon="5.63522">
        <ele>112</ele>
        <time>2010-10-03T09:51:52.000Z</time>
      </trkpt>
      <trkpt lat="43.21803" lon="5.63542">
        <ele>114.19999694824</ele>
        <time>2010-10-03T09:51:58.000Z</time>
      </trkpt>
      <trkpt lat="43.21815" lon="5.63561">
        <ele>116.80000305176</ele>
        <time>2010-10-03T09:52:03.000Z</time>
      </trkpt>
      <trkpt lat="43.21818" lon="5.63569">
        <ele>118</ele>
        <time>2010-10-03T09:52:05.000Z</time>
      </trkpt>
      <trkpt lat="43.21822" lon="5.63598">
        <ele>121</ele>
        <time>2010-10-03T09:52:11.000Z</time>
      </trkpt>
      <trkpt lat="43.21823" lon="5.63612">
        <ele>122.19999694824</ele>
        <time>2010-10-03T09:52:14.000Z</time>
      </trkpt>
      <trkpt lat="43.21825" lon="5.63631">
        <ele>123.80000305176</ele>
        <time>2010-10-03T09:52:18.000Z</time>
      </trkpt>
      <trkpt lat="43.21828" lon="5.63661">
        <ele>126.40000152588</ele>
        <time>2010-10-03T09:52:24.000Z</time>
      </trkpt>
      <trkpt lat="43.21829" lon="5.63681">
        <ele>127.80000305176</ele>
        <time>2010-10-03T09:52:28.000Z</time>
      </trkpt>
      <trkpt lat="43.21829" lon="5.63711">
        <ele>129.60000610352</ele>
        <time>2010-10-03T09:52:34.000Z</time>
      </trkpt>
      <trkpt lat="43.21826" lon="5.6373">
        <ele>130.80000305176</ele>
        <time>2010-10-03T09:52:38.000Z</time>
      </trkpt>
      <trkpt lat="43.21818" lon="5.63762">
        <ele>132.80000305176</ele>
        <time>2010-10-03T09:52:45.000Z</time>
      </trkpt>
      <trkpt lat="43.21816" lon="5.63767">
        <ele>133.19999694824</ele>
        <time>2010-10-03T09:52:46.000Z</time>
      </trkpt>
      <trkpt lat="43.21804" lon="5.63812">
        <ele>136.39999389648</ele>
        <time>2010-10-03T09:52:56.000Z</time>
      </trkpt>
      <trkpt lat="43.21805" lon="5.63842">
        <ele>138.60000610352</ele>
        <time>2010-10-03T09:53:03.000Z</time>
      </trkpt>
      <trkpt lat="43.21813" lon="5.63857">
        <ele>139.19999694824</ele>
        <time>2010-10-03T09:53:07.000Z</time>
      </trkpt>
      <trkpt lat="43.21818" lon="5.63867">
        <ele>139.60000610352</ele>
        <time>2010-10-03T09:53:10.000Z</time>
      </trkpt>
      <trkpt lat="43.21831" lon="5.6389">
        <ele>140.39999389648</ele>
        <time>2010-10-03T09:53:17.000Z</time>
      </trkpt>
      <trkpt lat="43.21835" lon="5.63897">
        <ele>140.80000305176</ele>
        <time>2010-10-03T09:53:19.000Z</time>
      </trkpt>
      <trkpt lat="43.21846" lon="5.63922">
        <ele>142.80000305176</ele>
        <time>2010-10-03T09:53:25.000Z</time>
      </trkpt>
      <trkpt lat="43.21855" lon="5.63942">
        <ele>145.60000610352</ele>
        <time>2010-10-03T09:53:30.000Z</time>
      </trkpt>
      <trkpt lat="43.21865" lon="5.63964">
        <ele>148.39999389648</ele>
        <time>2010-10-03T09:53:36.000Z</time>
      </trkpt>
      <trkpt lat="43.21878" lon="5.63984">
        <ele>150.39999389648</ele>
        <time>2010-10-03T09:53:42.000Z</time>
      </trkpt>
      <trkpt lat="43.21881" lon="5.63986">
        <ele>150.60000610352</ele>
        <time>2010-10-03T09:53:43.000Z</time>
      </trkpt>
      <trkpt lat="43.219" lon="5.64">
        <ele>151.60000610352</ele>
        <time>2010-10-03T09:53:50.000Z</time>
      </trkpt>
      <trkpt lat="43.21911" lon="5.64007">
        <ele>152</ele>
        <time>2010-10-03T09:53:54.000Z</time>
      </trkpt>
      <trkpt lat="43.21917" lon="5.64009">
        <ele>152</ele>
        <time>2010-10-03T09:53:56.000Z</time>
      </trkpt>
      <trkpt lat="43.21928" lon="5.64016">
        <ele>153</ele>
        <time>2010-10-03T09:54:00.000Z</time>
      </trkpt>
      <trkpt lat="43.21941" lon="5.64036">
        <ele>155.39999389648</ele>
        <time>2010-10-03T09:54:07.000Z</time>
      </trkpt>
      <trkpt lat="43.2195" lon="5.64065">
        <ele>158</ele>
        <time>2010-10-03T09:54:14.000Z</time>
      </trkpt>
      <trkpt lat="43.21957" lon="5.64082">
        <ele>159.39999389648</ele>
        <time>2010-10-03T09:54:18.000Z</time>
      </trkpt>
      <trkpt lat="43.21967" lon="5.64107">
        <ele>161</ele>
        <time>2010-10-03T09:54:24.000Z</time>
      </trkpt>
      <trkpt lat="43.21976" lon="5.64126">
        <ele>162.39999389648</ele>
        <time>2010-10-03T09:54:29.000Z</time>
      </trkpt>
      <trkpt lat="43.21983" lon="5.64142">
        <ele>163.39999389648</ele>
        <time>2010-10-03T09:54:33.000Z</time>
      </trkpt>
      <trkpt lat="43.21997" lon="5.64167">
        <ele>165</ele>
        <time>2010-10-03T09:54:40.000Z</time>
      </trkpt>
      <trkpt lat="43.22003" lon="5.64177">
        <ele>165.80000305176</ele>
        <time>2010-10-03T09:54:43.000Z</time>
      </trkpt>
      <trkpt lat="43.22022" lon="5.64206">
        <ele>168.19999694824</ele>
        <time>2010-10-03T09:54:52.000Z</time>
      </trkpt>
      <trkpt lat="43.22027" lon="5.64213">
        <ele>168.60000610352</ele>
        <time>2010-10-03T09:54:54.000Z</time>
      </trkpt>
      <trkpt lat="43.22044" lon="5.64238">
        <ele>170</ele>
        <time>2010-10-03T09:55:02.000Z</time>
      </trkpt>
      <trkpt lat="43.22047" lon="5.64245">
        <ele>170.19999694824</ele>
        <time>2010-10-03T09:55:04.000Z</time>
      </trkpt>
      <trkpt lat="43.22055" lon="5.64266">
        <ele>171.60000610352</ele>
        <time>2010-10-03T09:55:09.000Z</time>
      </trkpt>
      <trkpt lat="43.22061" lon="5.64292">
        <ele>173.19999694824</ele>
        <time>2010-10-03T09:55:15.000Z</time>
      </trkpt>
      <trkpt lat="43.22061" lon="5.64296">
        <ele>173.60000610352</ele>
        <time>2010-10-03T09:55:16.000Z</time>
      </trkpt>
      <trkpt lat="43.22064" lon="5.64332">
        <ele>176.19999694824</ele>
        <time>2010-10-03T09:55:24.000Z</time>
      </trkpt>
      <trkpt lat="43.22066" lon="5.64341">
        <ele>176.80000305176</ele>
        <time>2010-10-03T09:55:26.000Z</time>
      </trkpt>
      <trkpt lat="43.2207" lon="5.64373">
        <ele>179.39999389648</ele>
        <time>2010-10-03T09:55:33.000Z</time>
      </trkpt>
      <trkpt lat="43.22074" lon="5.6439">
        <ele>180.60000610352</ele>
        <time>2010-10-03T09:55:37.000Z</time>
      </trkpt>
      <trkpt lat="43.22079" lon="5.64411">
        <ele>181.80000305176</ele>
        <time>2010-10-03T09:55:42.000Z</time>
      </trkpt>
      <trkpt lat="43.22091" lon="5.64436">
        <ele>183.60000610352</ele>
        <time>2010-10-03T09:55:49.000Z</time>
      </trkpt>
      <trkpt lat="43.22093" lon="5.64439">
        <ele>184</ele>
        <time>2010-10-03T09:55:50.000Z</time>
      </trkpt>
      <trkpt lat="43.22113" lon="5.64471">
        <ele>186</ele>
        <time>2010-10-03T09:55:59.000Z</time>
      </trkpt>
      <trkpt lat="43.22115" lon="5.64474">
        <ele>186.19999694824</ele>
        <time>2010-10-03T09:56:00.000Z</time>
      </trkpt>
      <trkpt lat="43.22125" lon="5.64492">
        <ele>187.19999694824</ele>
        <time>2010-10-03T09:56:05.000Z</time>
      </trkpt>
      <trkpt lat="43.22137" lon="5.64513">
        <ele>188.60000610352</ele>
        <time>2010-10-03T09:56:11.000Z</time>
      </trkpt>
      <trkpt lat="43.22141" lon="5.64521">
        <ele>189</ele>
        <time>2010-10-03T09:56:13.000Z</time>
      </trkpt>
      <trkpt lat="43.22156" lon="5.64552">
        <ele>191</ele>
        <time>2010-10-03T09:56:21.000Z</time>
      </trkpt>
      <trkpt lat="43.22158" lon="5.64556">
        <ele>191.19999694824</ele>
        <time>2010-10-03T09:56:22.000Z</time>
      </trkpt>
      <trkpt lat="43.22171" lon="5.64591">
        <ele>193.39999389648</ele>
        <time>2010-10-03T09:56:31.000Z</time>
      </trkpt>
      <trkpt lat="43.22175" lon="5.64603">
        <ele>194.19999694824</ele>
        <time>2010-10-03T09:56:34.000Z</time>
      </trkpt>
      <trkpt lat="43.22182" lon="5.64623">
        <ele>195.60000610352</ele>
        <time>2010-10-03T09:56:39.000Z</time>
      </trkpt>
      <trkpt lat="43.22189" lon="5.64653">
        <ele>197.60000610352</ele>
        <time>2010-10-03T09:56:46.000Z</time>
      </trkpt>
      <trkpt lat="43.2219" lon="5.64657">
        <ele>197.80000305176</ele>
        <time>2010-10-03T09:56:47.000Z</time>
      </trkpt>
      <trkpt lat="43.22193" lon="5.64689">
        <ele>201</ele>
        <time>2010-10-03T09:56:55.000Z</time>
      </trkpt>
      <trkpt lat="43.22196" lon="5.64701">
        <ele>202.19999694824</ele>
        <time>2010-10-03T09:56:58.000Z</time>
      </trkpt>
      <trkpt lat="43.22204" lon="5.64727">
        <ele>204.60000610352</ele>
        <time>2010-10-03T09:57:04.000Z</time>
      </trkpt>
      <trkpt lat="43.22209" lon="5.64747">
        <ele>206.39999389648</ele>
        <time>2010-10-03T09:57:09.000Z</time>
      </trkpt>
      <trkpt lat="43.22215" lon="5.64764">
        <ele>208</ele>
        <time>2010-10-03T09:57:13.000Z</time>
      </trkpt>
      <trkpt lat="43.22226" lon="5.64791">
        <ele>210.19999694824</ele>
        <time>2010-10-03T09:57:20.000Z</time>
      </trkpt>
      <trkpt lat="43.22227" lon="5.64795">
        <ele>210.39999389648</ele>
        <time>2010-10-03T09:57:21.000Z</time>
      </trkpt>
      <trkpt lat="43.22241" lon="5.64826">
        <ele>213</ele>
        <time>2010-10-03T09:57:29.000Z</time>
      </trkpt>
      <trkpt lat="43.22244" lon="5.64834">
        <ele>213.39999389648</ele>
        <time>2010-10-03T09:57:31.000Z</time>
      </trkpt>
      <trkpt lat="43.22254" lon="5.64852">
        <ele>214.60000610352</ele>
        <time>2010-10-03T09:57:36.000Z</time>
      </trkpt>
      <trkpt lat="43.22267" lon="5.64873">
        <ele>216</ele>
        <time>2010-10-03T09:57:42.000Z</time>
      </trkpt>
      <trkpt lat="43.22272" lon="5.6488">
        <ele>216.39999389648</ele>
        <time>2010-10-03T09:57:44.000Z</time>
      </trkpt>
      <trkpt lat="43.22289" lon="5.64898">
        <ele>217.19999694824</ele>
        <time>2010-10-03T09:57:50.000Z</time>
      </trkpt>
      <trkpt lat="43.22298" lon="5.64902">
        <ele>217</ele>
        <time>2010-10-03T09:57:52.000Z</time>
      </trkpt>
      <trkpt lat="43.22316" lon="5.64911">
        <ele>216.60000610352</ele>
        <time>2010-10-03T09:57:56.000Z</time>
      </trkpt>
      <trkpt lat="43.22335" lon="5.6492">
        <ele>216.39999389648</ele>
        <time>2010-10-03T09:58:00.000Z</time>
      </trkpt>
      <trkpt lat="43.22345" lon="5.64924">
        <ele>217</ele>
        <time>2010-10-03T09:58:02.000Z</time>
      </trkpt>
      <trkpt lat="43.22373" lon="5.64938">
        <ele>218.80000305176</ele>
        <time>2010-10-03T09:58:08.000Z</time>
      </trkpt>
      <trkpt lat="43.22387" lon="5.64945">
        <ele>219.39999389648</ele>
        <time>2010-10-03T09:58:11.000Z</time>
      </trkpt>
      <trkpt lat="43.22406" lon="5.64954">
        <ele>219.80000305176</ele>
        <time>2010-10-03T09:58:15.000Z</time>
      </trkpt>
      <trkpt lat="43.2241" lon="5.64956">
        <ele>219.80000305176</ele>
        <time>2010-10-03T09:58:16.000Z</time>
      </trkpt>
      <trkpt lat="43.22414" lon="5.64958">
        <ele>220</ele>
        <time>2010-10-03T09:58:17.000Z</time>
      </trkpt>
      <trkpt lat="43.22445" lon="5.64972">
        <ele>222</ele>
        <time>2010-10-03T09:58:24.000Z</time>
      </trkpt>
      <trkpt lat="43.22482" lon="5.64987">
        <ele>223.80000305176</ele>
        <time>2010-10-03T09:58:31.000Z</time>
      </trkpt>
      <trkpt lat="43.22488" lon="5.64987">
        <ele>224</ele>
        <time>2010-10-03T09:58:32.000Z</time>
      </trkpt>
      <trkpt lat="43.22499" lon="5.64983">
        <ele>224</ele>
        <time>2010-10-03T09:58:34.000Z</time>
      </trkpt>
      <trkpt lat="43.22508" lon="5.64965">
        <ele>224</ele>
        <time>2010-10-03T09:58:37.000Z</time>
      </trkpt>
      <trkpt lat="43.22509" lon="5.64957">
        <ele>223.80000305176</ele>
        <time>2010-10-03T09:58:38.000Z</time>
      </trkpt>
      <trkpt lat="43.2251" lon="5.64949">
        <ele>223.60000610352</ele>
        <time>2010-10-03T09:58:39.000Z</time>
      </trkpt>
      <trkpt lat="43.22513" lon="5.64931">
        <ele>223</ele>
        <time>2010-10-03T09:58:41.000Z</time>
      </trkpt>
      <trkpt lat="43.22513" lon="5.64922">
        <ele>222.60000610352</ele>
        <time>2010-10-03T09:58:42.000Z</time>
      </trkpt>
      <trkpt lat="43.22515" lon="5.64902">
        <ele>221.60000610352</ele>
        <time>2010-10-03T09:58:44.000Z</time>
      </trkpt>
      <trkpt lat="43.22518" lon="5.64873">
        <ele>219.80000305176</ele>
        <time>2010-10-03T09:58:47.000Z</time>
      </trkpt>
      <trkpt lat="43.2252" lon="5.64845">
        <ele>218</ele>
        <time>2010-10-03T09:58:50.000Z</time>
      </trkpt>
      <trkpt lat="43.22524" lon="5.64827">
        <ele>217</ele>
        <time>2010-10-03T09:58:52.000Z</time>
      </trkpt>
      <trkpt lat="43.22528" lon="5.64818">
        <ele>216.60000610352</ele>
        <time>2010-10-03T09:58:53.000Z</time>
      </trkpt>
      <trkpt lat="43.22539" lon="5.64814">
        <ele>216.80000305176</ele>
        <time>2010-10-03T09:58:55.000Z</time>
      </trkpt>
      <trkpt lat="43.22547" lon="5.64818">
        <ele>217.39999389648</ele>
        <time>2010-10-03T09:58:56.000Z</time>
      </trkpt>
      <trkpt lat="43.2256" lon="5.64831">
        <ele>219.19999694824</ele>
        <time>2010-10-03T09:58:58.000Z</time>
      </trkpt>
      <trkpt lat="43.22577" lon="5.64849">
        <ele>222.19999694824</ele>
        <time>2010-10-03T09:59:01.000Z</time>
      </trkpt>
      <trkpt lat="43.2259" lon="5.64858">
        <ele>224.19999694824</ele>
        <time>2010-10-03T09:59:03.000Z</time>
      </trkpt>
      <trkpt lat="43.22611" lon="5.64854">
        <ele>225.60000610352</ele>
        <time>2010-10-03T09:59:06.000Z</time>
      </trkpt>
      <trkpt lat="43.22623" lon="5.64834">
        <ele>224.80000305176</ele>
        <time>2010-10-03T09:59:09.000Z</time>
      </trkpt>
      <trkpt lat="43.22627" lon="5.6482">
        <ele>223.60000610352</ele>
        <time>2010-10-03T09:59:11.000Z</time>
      </trkpt>
      <trkpt lat="43.22632" lon="5.64808">
        <ele>222.60000610352</ele>
        <time>2010-10-03T09:59:13.000Z</time>
      </trkpt>
      <trkpt lat="43.22633" lon="5.64802">
        <ele>222.19999694824</ele>
        <time>2010-10-03T09:59:14.000Z</time>
      </trkpt>
      <trkpt lat="43.22645" lon="5.6478">
        <ele>220.60000610352</ele>
        <time>2010-10-03T09:59:19.000Z</time>
      </trkpt>
      <trkpt lat="43.22657" lon="5.64779">
        <ele>221.39999389648</ele>
        <time>2010-10-03T09:59:22.000Z</time>
      </trkpt>
      <trkpt lat="43.2266" lon="5.6478">
        <ele>222</ele>
        <time>2010-10-03T09:59:23.000Z</time>
      </trkpt>
      <trkpt lat="43.22674" lon="5.6479">
        <ele>224.80000305176</ele>
        <time>2010-10-03T09:59:27.000Z</time>
      </trkpt>
      <trkpt lat="43.2268" lon="5.64796">
        <ele>226.39999389648</ele>
        <time>2010-10-03T09:59:29.000Z</time>
      </trkpt>
      <trkpt lat="43.22689" lon="5.64804">
        <ele>228.39999389648</ele>
        <time>2010-10-03T09:59:32.000Z</time>
      </trkpt>
      <trkpt lat="43.22702" lon="5.64813">
        <ele>230.80000305176</ele>
        <time>2010-10-03T09:59:36.000Z</time>
      </trkpt>
      <trkpt lat="43.2272" lon="5.64831">
        <ele>233.80000305176</ele>
        <time>2010-10-03T09:59:42.000Z</time>
      </trkpt>
      <trkpt lat="43.22722" lon="5.64834">
        <ele>234.19999694824</ele>
        <time>2010-10-03T09:59:43.000Z</time>
      </trkpt>
      <trkpt lat="43.22739" lon="5.6486">
        <ele>238</ele>
        <time>2010-10-03T09:59:50.000Z</time>
      </trkpt>
      <trkpt lat="43.22745" lon="5.64872">
        <ele>239.60000610352</ele>
        <time>2010-10-03T09:59:53.000Z</time>
      </trkpt>
      <trkpt lat="43.2275" lon="5.64883">
        <ele>241.19999694824</ele>
        <time>2010-10-03T09:59:56.000Z</time>
      </trkpt>
      <trkpt lat="43.22761" lon="5.649">
        <ele>244</ele>
        <time>2010-10-03T10:00:01.000Z</time>
      </trkpt>
      <trkpt lat="43.22771" lon="5.64904">
        <ele>245.39999389648</ele>
        <time>2010-10-03T10:00:04.000Z</time>
      </trkpt>
      <trkpt lat="43.22775" lon="5.64902">
        <ele>246</ele>
        <time>2010-10-03T10:00:05.000Z</time>
      </trkpt>
      <trkpt lat="43.22783" lon="5.64889">
        <ele>246.19999694824</ele>
        <time>2010-10-03T10:00:08.000Z</time>
      </trkpt>
      <trkpt lat="43.22785" lon="5.64866">
        <ele>244.80000305176</ele>
        <time>2010-10-03T10:00:12.000Z</time>
      </trkpt>
      <trkpt lat="43.22784" lon="5.6486">
        <ele>244.39999389648</ele>
        <time>2010-10-03T10:00:13.000Z</time>
      </trkpt>
      <trkpt lat="43.22776" lon="5.6482">
        <ele>241</ele>
        <time>2010-10-03T10:00:20.000Z</time>
      </trkpt>
      <trkpt lat="43.22772" lon="5.6481">
        <ele>240.19999694824</ele>
        <time>2010-10-03T10:00:22.000Z</time>
      </trkpt>
      <trkpt lat="43.22761" lon="5.64777">
        <ele>238.19999694824</ele>
        <time>2010-10-03T10:00:28.000Z</time>
      </trkpt>
      <trkpt lat="43.22757" lon="5.64759">
        <ele>237.60000610352</ele>
        <time>2010-10-03T10:00:31.000Z</time>
      </trkpt>
      <trkpt lat="43.22752" lon="5.64735">
        <ele>237.60000610352</ele>
        <time>2010-10-03T10:00:35.000Z</time>
      </trkpt>
      <trkpt lat="43.22757" lon="5.6472">
        <ele>238.39999389648</ele>
        <time>2010-10-03T10:00:38.000Z</time>
      </trkpt>
      <trkpt lat="43.22763" lon="5.64718">
        <ele>238.80000305176</ele>
        <time>2010-10-03T10:00:40.000Z</time>
      </trkpt>
      <trkpt lat="43.22766" lon="5.64719">
        <ele>239</ele>
        <time>2010-10-03T10:00:41.000Z</time>
      </trkpt>
      <trkpt lat="43.22776" lon="5.64732">
        <ele>239.60000610352</ele>
        <time>2010-10-03T10:00:45.000Z</time>
      </trkpt>
      <trkpt lat="43.22779" lon="5.64741">
        <ele>239.80000305176</ele>
        <time>2010-10-03T10:00:47.000Z</time>
      </trkpt>
      <trkpt lat="43.22785" lon="5.64758">
        <ele>240.39999389648</ele>
        <time>2010-10-03T10:00:51.000Z</time>
      </trkpt>
      <trkpt lat="43.22787" lon="5.64762">
        <ele>240.80000305176</ele>
        <time>2010-10-03T10:00:52.000Z</time>
      </trkpt>
      <trkpt lat="43.22797" lon="5.64793">
        <ele>243.19999694824</ele>
        <time>2010-10-03T10:00:59.000Z</time>
      </trkpt>
      <trkpt lat="43.22801" lon="5.64807">
        <ele>244.39999389648</ele>
        <time>2010-10-03T10:01:02.000Z</time>
      </trkpt>
      <trkpt lat="43.22812" lon="5.64839">
        <ele>247.60000610352</ele>
        <time>2010-10-03T10:01:09.000Z</time>
      </trkpt>
      <trkpt lat="43.22815" lon="5.64853">
        <ele>248.60000610352</ele>
        <time>2010-10-03T10:01:12.000Z</time>
      </trkpt>
      <trkpt lat="43.22819" lon="5.64867">
        <ele>250</ele>
        <time>2010-10-03T10:01:15.000Z</time>
      </trkpt>
      <trkpt lat="43.22829" lon="5.64901">
        <ele>252.80000305176</ele>
        <time>2010-10-03T10:01:23.000Z</time>
      </trkpt>
      <trkpt lat="43.2283" lon="5.64905">
        <ele>253</ele>
        <time>2010-10-03T10:01:24.000Z</time>
      </trkpt>
      <trkpt lat="43.22838" lon="5.64933">
        <ele>255</ele>
        <time>2010-10-03T10:01:31.000Z</time>
      </trkpt>
      <trkpt lat="43.22843" lon="5.64949">
        <ele>256</ele>
        <time>2010-10-03T10:01:35.000Z</time>
      </trkpt>
      <trkpt lat="43.22846" lon="5.64957">
        <ele>256.60000610352</ele>
        <time>2010-10-03T10:01:37.000Z</time>
      </trkpt>
      <trkpt lat="43.2286" lon="5.64992">
        <ele>259.39999389648</ele>
        <time>2010-10-03T10:01:46.000Z</time>
      </trkpt>
      <trkpt lat="43.22876" lon="5.65025">
        <ele>262.79998779297</ele>
        <time>2010-10-03T10:01:55.000Z</time>
      </trkpt>
      <trkpt lat="43.22881" lon="5.65036">
        <ele>263.79998779297</ele>
        <time>2010-10-03T10:01:58.000Z</time>
      </trkpt>
      <trkpt lat="43.22889" lon="5.65049">
        <ele>265.20001220703</ele>
        <time>2010-10-03T10:02:02.000Z</time>
      </trkpt>
      <trkpt lat="43.22902" lon="5.65067">
        <ele>267.60000610352</ele>
        <time>2010-10-03T10:02:08.000Z</time>
      </trkpt>
      <trkpt lat="43.22907" lon="5.65073">
        <ele>268.39999389648</ele>
        <time>2010-10-03T10:02:10.000Z</time>
      </trkpt>
      <trkpt lat="43.2292" lon="5.65092">
        <ele>271</ele>
        <time>2010-10-03T10:02:16.000Z</time>
      </trkpt>
      <trkpt lat="43.22932" lon="5.6511">
        <ele>273.79998779297</ele>
        <time>2010-10-03T10:02:22.000Z</time>
      </trkpt>
      <trkpt lat="43.22936" lon="5.65118">
        <ele>274.79998779297</ele>
        <time>2010-10-03T10:02:24.000Z</time>
      </trkpt>
      <trkpt lat="43.22945" lon="5.65146">
        <ele>278.39999389648</ele>
        <time>2010-10-03T10:02:31.000Z</time>
      </trkpt>
      <trkpt lat="43.22949" lon="5.65158">
        <ele>280</ele>
        <time>2010-10-03T10:02:34.000Z</time>
      </trkpt>
      <trkpt lat="43.22954" lon="5.65173">
        <ele>282</ele>
        <time>2010-10-03T10:02:38.000Z</time>
      </trkpt>
      <trkpt lat="43.22964" lon="5.65206">
        <ele>285.39999389648</ele>
        <time>2010-10-03T10:02:46.000Z</time>
      </trkpt>
      <trkpt lat="43.22973" lon="5.65244">
        <ele>288.79998779297</ele>
        <time>2010-10-03T10:02:55.000Z</time>
      </trkpt>
      <trkpt lat="43.22974" lon="5.65256">
        <ele>289.60000610352</ele>
        <time>2010-10-03T10:02:58.000Z</time>
      </trkpt>
      <trkpt lat="43.2298" lon="5.65277">
        <ele>290.79998779297</ele>
        <time>2010-10-03T10:03:03.000Z</time>
      </trkpt>
      <trkpt lat="43.22984" lon="5.65304">
        <ele>292.20001220703</ele>
        <time>2010-10-03T10:03:09.000Z</time>
      </trkpt>
      <trkpt lat="43.22985" lon="5.65309">
        <ele>292.39999389648</ele>
        <time>2010-10-03T10:03:10.000Z</time>
      </trkpt>
      <trkpt lat="43.22983" lon="5.65342">
        <ele>293.79998779297</ele>
        <time>2010-10-03T10:03:17.000Z</time>
      </trkpt>
      <trkpt lat="43.22985" lon="5.65355">
        <ele>294.39999389648</ele>
        <time>2010-10-03T10:03:20.000Z</time>
      </trkpt>
      <trkpt lat="43.22986" lon="5.65358">
        <ele>294.60000610352</ele>
        <time>2010-10-03T10:03:21.000Z</time>
      </trkpt>
      <trkpt lat="43.22988" lon="5.65361">
        <ele>294.79998779297</ele>
        <time>2010-10-03T10:03:22.000Z</time>
      </trkpt>
      <trkpt lat="43.22999" lon="5.65367">
        <ele>295.39999389648</ele>
        <time>2010-10-03T10:03:26.000Z</time>
      </trkpt>
      <trkpt lat="43.2301" lon="5.6536">
        <ele>296.20001220703</ele>
        <time>2010-10-03T10:03:30.000Z</time>
      </trkpt>
      <trkpt lat="43.23013" lon="5.65351">
        <ele>296</ele>
        <time>2010-10-03T10:03:33.000Z</time>
      </trkpt>
      <trkpt lat="43.23013" lon="5.65347">
        <ele>295.79998779297</ele>
        <time>2010-10-03T10:03:34.000Z</time>
      </trkpt>
      <trkpt lat="43.23014" lon="5.65342">
        <ele>295.60000610352</ele>
        <time>2010-10-03T10:03:35.000Z</time>
      </trkpt>
      <trkpt lat="43.23013" lon="5.65319">
        <ele>294.60000610352</ele>
        <time>2010-10-03T10:03:40.000Z</time>
      </trkpt>
      <trkpt lat="43.23016" lon="5.65299">
        <ele>294.20001220703</ele>
        <time>2010-10-03T10:03:44.000Z</time>
      </trkpt>
      <trkpt lat="43.23018" lon="5.65295">
        <ele>294.39999389648</ele>
        <time>2010-10-03T10:03:45.000Z</time>
      </trkpt>
      <trkpt lat="43.23033" lon="5.65284">
        <ele>295.39999389648</ele>
        <time>2010-10-03T10:03:50.000Z</time>
      </trkpt>
      <trkpt lat="43.23044" lon="5.65288">
        <ele>296.79998779297</ele>
        <time>2010-10-03T10:03:54.000Z</time>
      </trkpt>
      <trkpt lat="43.23047" lon="5.6529">
        <ele>297.20001220703</ele>
        <time>2010-10-03T10:03:55.000Z</time>
      </trkpt>
      <trkpt lat="43.23055" lon="5.65304">
        <ele>298.39999389648</ele>
        <time>2010-10-03T10:03:59.000Z</time>
      </trkpt>
      <trkpt lat="43.23054" lon="5.65333">
        <ele>299</ele>
        <time>2010-10-03T10:04:05.000Z</time>
      </trkpt>
      <trkpt lat="43.23053" lon="5.65337">
        <ele>299.20001220703</ele>
        <time>2010-10-03T10:04:06.000Z</time>
      </trkpt>
      <trkpt lat="43.23047" lon="5.65371">
        <ele>300.20001220703</ele>
        <time>2010-10-03T10:04:13.000Z</time>
      </trkpt>
      <trkpt lat="43.23045" lon="5.65386">
        <ele>300.79998779297</ele>
        <time>2010-10-03T10:04:16.000Z</time>
      </trkpt>
      <trkpt lat="43.23043" lon="5.65395">
        <ele>301</ele>
        <time>2010-10-03T10:04:18.000Z</time>
      </trkpt>
      <trkpt lat="43.23038" lon="5.65435">
        <ele>302.60000610352</ele>
        <time>2010-10-03T10:04:26.000Z</time>
      </trkpt>
      <trkpt lat="43.23036" lon="5.65475">
        <ele>304.79998779297</ele>
        <time>2010-10-03T10:04:34.000Z</time>
      </trkpt>
      <trkpt lat="43.23037" lon="5.65485">
        <ele>305.60000610352</ele>
        <time>2010-10-03T10:04:36.000Z</time>
      </trkpt>
      <trkpt lat="43.23039" lon="5.65512">
        <ele>307.60000610352</ele>
        <time>2010-10-03T10:04:41.000Z</time>
      </trkpt>
      <trkpt lat="43.23041" lon="5.65537">
        <ele>310</ele>
        <time>2010-10-03T10:04:46.000Z</time>
      </trkpt>
      <trkpt lat="43.23042" lon="5.65552">
        <ele>311.39999389648</ele>
        <time>2010-10-03T10:04:49.000Z</time>
      </trkpt>
      <trkpt lat="43.23047" lon="5.65587">
        <ele>314.60000610352</ele>
        <time>2010-10-03T10:04:56.000Z</time>
      </trkpt>
      <trkpt lat="43.23047" lon="5.65592">
        <ele>314.79998779297</ele>
        <time>2010-10-03T10:04:57.000Z</time>
      </trkpt>
      <trkpt lat="43.23052" lon="5.65617">
        <ele>316.60000610352</ele>
        <time>2010-10-03T10:05:02.000Z</time>
      </trkpt>
      <trkpt lat="43.23053" lon="5.65638">
        <ele>317.79998779297</ele>
        <time>2010-10-03T10:05:06.000Z</time>
      </trkpt>
      <trkpt lat="43.23053" lon="5.65649">
        <ele>318.39999389648</ele>
        <time>2010-10-03T10:05:08.000Z</time>
      </trkpt>
      <trkpt lat="43.23047" lon="5.65684">
        <ele>319.60000610352</ele>
        <time>2010-10-03T10:05:15.000Z</time>
      </trkpt>
      <trkpt lat="43.23046" lon="5.65689">
        <ele>319.79998779297</ele>
        <time>2010-10-03T10:05:16.000Z</time>
      </trkpt>
      <trkpt lat="43.23044" lon="5.65694">
        <ele>319.79998779297</ele>
        <time>2010-10-03T10:05:17.000Z</time>
      </trkpt>
      <trkpt lat="43.23041" lon="5.65705">
        <ele>320</ele>
        <time>2010-10-03T10:05:19.000Z</time>
      </trkpt>
      <trkpt lat="43.23032" lon="5.65735">
        <ele>320.39999389648</ele>
        <time>2010-10-03T10:05:25.000Z</time>
      </trkpt>
      <trkpt lat="43.23031" lon="5.65741">
        <ele>320.60000610352</ele>
        <time>2010-10-03T10:05:26.000Z</time>
      </trkpt>
      <trkpt lat="43.23024" lon="5.65768">
        <ele>320.79998779297</ele>
        <time>2010-10-03T10:05:31.000Z</time>
      </trkpt>
      <trkpt lat="43.23018" lon="5.65783">
        <ele>320.79998779297</ele>
        <time>2010-10-03T10:05:34.000Z</time>
      </trkpt>
      <trkpt lat="43.2301" lon="5.65802">
        <ele>320.39999389648</ele>
        <time>2010-10-03T10:05:38.000Z</time>
      </trkpt>
      <trkpt lat="43.23" lon="5.65826">
        <ele>320.39999389648</ele>
        <time>2010-10-03T10:05:43.000Z</time>
      </trkpt>
      <trkpt lat="43.22999" lon="5.65831">
        <ele>320.79998779297</ele>
        <time>2010-10-03T10:05:44.000Z</time>
      </trkpt>
      <trkpt lat="43.23003" lon="5.65846">
        <ele>322.39999389648</ele>
        <time>2010-10-03T10:05:48.000Z</time>
      </trkpt>
      <trkpt lat="43.23014" lon="5.65845">
        <ele>323.79998779297</ele>
        <time>2010-10-03T10:05:51.000Z</time>
      </trkpt>
      <trkpt lat="43.23022" lon="5.6584">
        <ele>324.39999389648</ele>
        <time>2010-10-03T10:05:53.000Z</time>
      </trkpt>
      <trkpt lat="43.23024" lon="5.65836">
        <ele>324.60000610352</ele>
        <time>2010-10-03T10:05:54.000Z</time>
      </trkpt>
      <trkpt lat="43.23031" lon="5.6583">
        <ele>325.20001220703</ele>
        <time>2010-10-03T10:05:56.000Z</time>
      </trkpt>
      <trkpt lat="43.23051" lon="5.65823">
        <ele>327.79998779297</ele>
        <time>2010-10-03T10:06:01.000Z</time>
      </trkpt>
      <trkpt lat="43.23055" lon="5.65825">
        <ele>328.39999389648</ele>
        <time>2010-10-03T10:06:02.000Z</time>
      </trkpt>
      <trkpt lat="43.23064" lon="5.65835">
        <ele>330.20001220703</ele>
        <time>2010-10-03T10:06:05.000Z</time>
      </trkpt>
      <trkpt lat="43.23077" lon="5.65854">
        <ele>332.79998779297</ele>
        <time>2010-10-03T10:06:11.000Z</time>
      </trkpt>
      <trkpt lat="43.23085" lon="5.65855">
        <ele>333.79998779297</ele>
        <time>2010-10-03T10:06:13.000Z</time>
      </trkpt>
      <trkpt lat="43.23092" lon="5.65852">
        <ele>334.79998779297</ele>
        <time>2010-10-03T10:06:15.000Z</time>
      </trkpt>
      <trkpt lat="43.23101" lon="5.65834">
        <ele>335.39999389648</ele>
        <time>2010-10-03T10:06:20.000Z</time>
      </trkpt>
      <trkpt lat="43.23103" lon="5.65813">
        <ele>334.60000610352</ele>
        <time>2010-10-03T10:06:24.000Z</time>
      </trkpt>
      <trkpt lat="43.23103" lon="5.65803">
        <ele>334.20001220703</ele>
        <time>2010-10-03T10:06:26.000Z</time>
      </trkpt>
      <trkpt lat="43.23102" lon="5.65769">
        <ele>332.20001220703</ele>
        <time>2010-10-03T10:06:32.000Z</time>
      </trkpt>
      <trkpt lat="43.23102" lon="5.65763">
        <ele>332</ele>
        <time>2010-10-03T10:06:33.000Z</time>
      </trkpt>
      <trkpt lat="43.23103" lon="5.65746">
        <ele>330.79998779297</ele>
        <time>2010-10-03T10:06:36.000Z</time>
      </trkpt>
      <trkpt lat="43.23104" lon="5.65734">
        <ele>330</ele>
        <time>2010-10-03T10:06:38.000Z</time>
      </trkpt>
      <trkpt lat="43.23109" lon="5.65719">
        <ele>328.79998779297</ele>
        <time>2010-10-03T10:06:41.000Z</time>
      </trkpt>
      <trkpt lat="43.23112" lon="5.65714">
        <ele>328.60000610352</ele>
        <time>2010-10-03T10:06:42.000Z</time>
      </trkpt>
      <trkpt lat="43.23115" lon="5.6571">
        <ele>328.39999389648</ele>
        <time>2010-10-03T10:06:43.000Z</time>
      </trkpt>
      <trkpt lat="43.23136" lon="5.657">
        <ele>328.60000610352</ele>
        <time>2010-10-03T10:06:48.000Z</time>
      </trkpt>
      <trkpt lat="43.23149" lon="5.657">
        <ele>329.39999389648</ele>
        <time>2010-10-03T10:06:51.000Z</time>
      </trkpt>
      <trkpt lat="43.23157" lon="5.65705">
        <ele>330.39999389648</ele>
        <time>2010-10-03T10:06:53.000Z</time>
      </trkpt>
      <trkpt lat="43.23169" lon="5.65721">
        <ele>332.79998779297</ele>
        <time>2010-10-03T10:06:57.000Z</time>
      </trkpt>
      <trkpt lat="43.23171" lon="5.65726">
        <ele>333.39999389648</ele>
        <time>2010-10-03T10:06:58.000Z</time>
      </trkpt>
      <trkpt lat="43.23174" lon="5.65736">
        <ele>334.60000610352</ele>
        <time>2010-10-03T10:07:00.000Z</time>
      </trkpt>
      <trkpt lat="43.23179" lon="5.65751">
        <ele>336.39999389648</ele>
        <time>2010-10-03T10:07:03.000Z</time>
      </trkpt>
      <trkpt lat="43.2319" lon="5.65786">
        <ele>339.79998779297</ele>
        <time>2010-10-03T10:07:10.000Z</time>
      </trkpt>
      <trkpt lat="43.23199" lon="5.65815">
        <ele>342.39999389648</ele>
        <time>2010-10-03T10:07:16.000Z</time>
      </trkpt>
      <trkpt lat="43.23205" lon="5.65835">
        <ele>344</ele>
        <time>2010-10-03T10:07:20.000Z</time>
      </trkpt>
      <trkpt lat="43.23207" lon="5.65846">
        <ele>344.60000610352</ele>
        <time>2010-10-03T10:07:22.000Z</time>
      </trkpt>
      <trkpt lat="43.23208" lon="5.65851">
        <ele>344.79998779297</ele>
        <time>2010-10-03T10:07:23.000Z</time>
      </trkpt>
      <trkpt lat="43.2321" lon="5.65868">
        <ele>345.79998779297</ele>
        <time>2010-10-03T10:07:26.000Z</time>
      </trkpt>
      <trkpt lat="43.23209" lon="5.65879">
        <ele>346.39999389648</ele>
        <time>2010-10-03T10:07:28.000Z</time>
      </trkpt>
      <trkpt lat="43.23208" lon="5.65884">
        <ele>346.60000610352</ele>
        <time>2010-10-03T10:07:29.000Z</time>
      </trkpt>
      <trkpt lat="43.23199" lon="5.65908">
        <ele>347.79998779297</ele>
        <time>2010-10-03T10:07:34.000Z</time>
      </trkpt>
      <trkpt lat="43.23188" lon="5.65932">
        <ele>348.60000610352</ele>
        <time>2010-10-03T10:07:39.000Z</time>
      </trkpt>
      <trkpt lat="43.23184" lon="5.65941">
        <ele>348.79998779297</ele>
        <time>2010-10-03T10:07:41.000Z</time>
      </trkpt>
      <trkpt lat="43.23174" lon="5.65958">
        <ele>349</ele>
        <time>2010-10-03T10:07:45.000Z</time>
      </trkpt>
      <trkpt lat="43.23169" lon="5.65974">
        <ele>349.39999389648</ele>
        <time>2010-10-03T10:07:48.000Z</time>
      </trkpt>
      <trkpt lat="43.23167" lon="5.65986">
        <ele>349.60000610352</ele>
        <time>2010-10-03T10:07:50.000Z</time>
      </trkpt>
      <trkpt lat="43.23169" lon="5.65998">
        <ele>350</ele>
        <time>2010-10-03T10:07:52.000Z</time>
      </trkpt>
      <trkpt lat="43.23175" lon="5.66012">
        <ele>350.79998779297</ele>
        <time>2010-10-03T10:07:55.000Z</time>
      </trkpt>
      <trkpt lat="43.2318" lon="5.66019">
        <ele>351.39999389648</ele>
        <time>2010-10-03T10:07:57.000Z</time>
      </trkpt>
      <trkpt lat="43.23198" lon="5.66035">
        <ele>352.79998779297</ele>
        <time>2010-10-03T10:08:03.000Z</time>
      </trkpt>
      <trkpt lat="43.2321" lon="5.66047">
        <ele>353.79998779297</ele>
        <time>2010-10-03T10:08:07.000Z</time>
      </trkpt>
      <trkpt lat="43.23217" lon="5.66059">
        <ele>354.60000610352</ele>
        <time>2010-10-03T10:08:10.000Z</time>
      </trkpt>
      <trkpt lat="43.23229" lon="5.66088">
        <ele>356.60000610352</ele>
        <time>2010-10-03T10:08:17.000Z</time>
      </trkpt>
      <trkpt lat="43.23231" lon="5.66092">
        <ele>357</ele>
        <time>2010-10-03T10:08:18.000Z</time>
      </trkpt>
      <trkpt lat="43.23242" lon="5.66119">
        <ele>358.60000610352</ele>
        <time>2010-10-03T10:08:24.000Z</time>
      </trkpt>
      <trkpt lat="43.2325" lon="5.66138">
        <ele>359.60000610352</ele>
        <time>2010-10-03T10:08:28.000Z</time>
      </trkpt>
      <trkpt lat="43.23261" lon="5.66168">
        <ele>361.20001220703</ele>
        <time>2010-10-03T10:08:34.000Z</time>
      </trkpt>
      <trkpt lat="43.23262" lon="5.66173">
        <ele>361.60000610352</ele>
        <time>2010-10-03T10:08:35.000Z</time>
      </trkpt>
      <trkpt lat="43.23264" lon="5.66184">
        <ele>362.20001220703</ele>
        <time>2010-10-03T10:08:37.000Z</time>
      </trkpt>
      <trkpt lat="43.23266" lon="5.662">
        <ele>363</ele>
        <time>2010-10-03T10:08:40.000Z</time>
      </trkpt>
      <trkpt lat="43.23268" lon="5.66233">
        <ele>364.60000610352</ele>
        <time>2010-10-03T10:08:46.000Z</time>
      </trkpt>
      <trkpt lat="43.23269" lon="5.66239">
        <ele>364.79998779297</ele>
        <time>2010-10-03T10:08:47.000Z</time>
      </trkpt>
      <trkpt lat="43.23279" lon="5.66257">
        <ele>365.79998779297</ele>
        <time>2010-10-03T10:08:51.000Z</time>
      </trkpt>
      <trkpt lat="43.2329" lon="5.66262">
        <ele>366</ele>
        <time>2010-10-03T10:08:54.000Z</time>
      </trkpt>
      <trkpt lat="43.23293" lon="5.66262">
        <ele>366</ele>
        <time>2010-10-03T10:08:55.000Z</time>
      </trkpt>
      <trkpt lat="43.23297" lon="5.66262">
        <ele>366</ele>
        <time>2010-10-03T10:08:56.000Z</time>
      </trkpt>
      <trkpt lat="43.23316" lon="5.66263">
        <ele>365.79998779297</ele>
        <time>2010-10-03T10:09:01.000Z</time>
      </trkpt>
      <trkpt lat="43.23327" lon="5.66275">
        <ele>366.60000610352</ele>
        <time>2010-10-03T10:09:05.000Z</time>
      </trkpt>
      <trkpt lat="43.23329" lon="5.66278">
        <ele>367</ele>
        <time>2010-10-03T10:09:06.000Z</time>
      </trkpt>
      <trkpt lat="43.23339" lon="5.66299">
        <ele>369.60000610352</ele>
        <time>2010-10-03T10:09:11.000Z</time>
      </trkpt>
      <trkpt lat="43.23347" lon="5.66323">
        <ele>372.39999389648</ele>
        <time>2010-10-03T10:09:16.000Z</time>
      </trkpt>
      <trkpt lat="43.23352" lon="5.66337">
        <ele>373.79998779297</ele>
        <time>2010-10-03T10:09:19.000Z</time>
      </trkpt>
      <trkpt lat="43.23361" lon="5.66371">
        <ele>375.79998779297</ele>
        <time>2010-10-03T10:09:26.000Z</time>
      </trkpt>
      <trkpt lat="43.23362" lon="5.66376">
        <ele>376.20001220703</ele>
        <time>2010-10-03T10:09:27.000Z</time>
      </trkpt>
      <trkpt lat="43.2336" lon="5.66414">
        <ele>378.20001220703</ele>
        <time>2010-10-03T10:09:34.000Z</time>
      </trkpt>
      <trkpt lat="43.23359" lon="5.6642">
        <ele>378.60000610352</ele>
        <time>2010-10-03T10:09:35.000Z</time>
      </trkpt>
      <trkpt lat="43.23352" lon="5.66465">
        <ele>381.79998779297</ele>
        <time>2010-10-03T10:09:42.000Z</time>
      </trkpt>
      <trkpt lat="43.23352" lon="5.66472">
        <ele>382.20001220703</ele>
        <time>2010-10-03T10:09:43.000Z</time>
      </trkpt>
      <trkpt lat="43.2335" lon="5.66486">
        <ele>383.20001220703</ele>
        <time>2010-10-03T10:09:45.000Z</time>
      </trkpt>
      <trkpt lat="43.23349" lon="5.66507">
        <ele>384.20001220703</ele>
        <time>2010-10-03T10:09:48.000Z</time>
      </trkpt>
      <trkpt lat="43.23348" lon="5.66514">
        <ele>384.39999389648</ele>
        <time>2010-10-03T10:09:49.000Z</time>
      </trkpt>
      <trkpt lat="43.23348" lon="5.66521">
        <ele>384.60000610352</ele>
        <time>2010-10-03T10:09:50.000Z</time>
      </trkpt>
      <trkpt lat="43.23349" lon="5.66547">
        <ele>385</ele>
        <time>2010-10-03T10:09:54.000Z</time>
      </trkpt>
      <trkpt lat="43.23352" lon="5.66574">
        <ele>385.20001220703</ele>
        <time>2010-10-03T10:09:58.000Z</time>
      </trkpt>
      <trkpt lat="43.23357" lon="5.66586">
        <ele>385.39999389648</ele>
        <time>2010-10-03T10:10:00.000Z</time>
      </trkpt>
      <trkpt lat="43.23371" lon="5.6661">
        <ele>385.60000610352</ele>
        <time>2010-10-03T10:10:05.000Z</time>
      </trkpt>
      <trkpt lat="43.23374" lon="5.66615">
        <ele>385.60000610352</ele>
        <time>2010-10-03T10:10:06.000Z</time>
      </trkpt>
      <trkpt lat="43.2339" lon="5.6665">
        <ele>385.60000610352</ele>
        <time>2010-10-03T10:10:13.000Z</time>
      </trkpt>
      <trkpt lat="43.23394" lon="5.66661">
        <ele>385.39999389648</ele>
        <time>2010-10-03T10:10:15.000Z</time>
      </trkpt>
      <trkpt lat="43.23396" lon="5.66673">
        <ele>386</ele>
        <time>2010-10-03T10:10:17.000Z</time>
      </trkpt>
      <trkpt lat="43.23396" lon="5.66685">
        <ele>387</ele>
        <time>2010-10-03T10:10:19.000Z</time>
      </trkpt>
      <trkpt lat="43.23395" lon="5.66703">
        <ele>388.60000610352</ele>
        <time>2010-10-03T10:10:22.000Z</time>
      </trkpt>
      <trkpt lat="43.23393" lon="5.66716">
        <ele>389.79998779297</ele>
        <time>2010-10-03T10:10:24.000Z</time>
      </trkpt>
      <trkpt lat="43.23394" lon="5.66728">
        <ele>390.79998779297</ele>
        <time>2010-10-03T10:10:26.000Z</time>
      </trkpt>
      <trkpt lat="43.23395" lon="5.6674">
        <ele>391.60000610352</ele>
        <time>2010-10-03T10:10:28.000Z</time>
      </trkpt>
      <trkpt lat="43.23401" lon="5.66761">
        <ele>392.60000610352</ele>
        <time>2010-10-03T10:10:32.000Z</time>
      </trkpt>
      <trkpt lat="43.23403" lon="5.66767">
        <ele>392.79998779297</ele>
        <time>2010-10-03T10:10:33.000Z</time>
      </trkpt>
      <trkpt lat="43.23412" lon="5.66802">
        <ele>394.20001220703</ele>
        <time>2010-10-03T10:10:39.000Z</time>
      </trkpt>
      <trkpt lat="43.23412" lon="5.66808">
        <ele>394.60000610352</ele>
        <time>2010-10-03T10:10:40.000Z</time>
      </trkpt>
      <trkpt lat="43.23413" lon="5.66814">
        <ele>395</ele>
        <time>2010-10-03T10:10:41.000Z</time>
      </trkpt>
      <trkpt lat="43.23416" lon="5.66838">
        <ele>396.20001220703</ele>
        <time>2010-10-03T10:10:45.000Z</time>
      </trkpt>
      <trkpt lat="43.23416" lon="5.66867">
        <ele>397.20001220703</ele>
        <time>2010-10-03T10:10:50.000Z</time>
      </trkpt>
      <trkpt lat="43.23415" lon="5.66878">
        <ele>397.79998779297</ele>
        <time>2010-10-03T10:10:52.000Z</time>
      </trkpt>
      <trkpt lat="43.23411" lon="5.66918">
        <ele>399.60000610352</ele>
        <time>2010-10-03T10:10:59.000Z</time>
      </trkpt>
      <trkpt lat="43.23408" lon="5.66929">
        <ele>399.79998779297</ele>
        <time>2010-10-03T10:11:01.000Z</time>
      </trkpt>
      <trkpt lat="43.23404" lon="5.66951">
        <ele>399.79998779297</ele>
        <time>2010-10-03T10:11:05.000Z</time>
      </trkpt>
      <trkpt lat="43.23404" lon="5.66963">
        <ele>399.60000610352</ele>
        <time>2010-10-03T10:11:07.000Z</time>
      </trkpt>
      <trkpt lat="43.23404" lon="5.66969">
        <ele>399.60000610352</ele>
        <time>2010-10-03T10:11:08.000Z</time>
      </trkpt>
      <trkpt lat="43.23406" lon="5.66987">
        <ele>399.20001220703</ele>
        <time>2010-10-03T10:11:11.000Z</time>
      </trkpt>
      <trkpt lat="43.23409" lon="5.67005">
        <ele>398.60000610352</ele>
        <time>2010-10-03T10:11:14.000Z</time>
      </trkpt>
      <trkpt lat="43.23413" lon="5.67023">
        <ele>398.20001220703</ele>
        <time>2010-10-03T10:11:17.000Z</time>
      </trkpt>
      <trkpt lat="43.23418" lon="5.67046">
        <ele>398</ele>
        <time>2010-10-03T10:11:21.000Z</time>
      </trkpt>
      <trkpt lat="43.23423" lon="5.67075">
        <ele>398.20001220703</ele>
        <time>2010-10-03T10:11:26.000Z</time>
      </trkpt>
      <trkpt lat="43.2343" lon="5.6711">
        <ele>398.20001220703</ele>
        <time>2010-10-03T10:11:32.000Z</time>
      </trkpt>
      <trkpt lat="43.23433" lon="5.67128">
        <ele>398.20001220703</ele>
        <time>2010-10-03T10:11:35.000Z</time>
      </trkpt>
      <trkpt lat="43.23444" lon="5.67176">
        <ele>398.39999389648</ele>
        <time>2010-10-03T10:11:43.000Z</time>
      </trkpt>
      <trkpt lat="43.23446" lon="5.67181">
        <ele>398.60000610352</ele>
        <time>2010-10-03T10:11:44.000Z</time>
      </trkpt>
    </trkseg>
  </trk>
</gpx>